Argyle, Michigan
Current Conditions -  °F | °C
As of 6:55 PM on Friday 19 Dec 2014 (Local Time) from KBAX Reporting Station
Clear Clear  
Wind Chill: 20°   Ceiling: Unl
Heat Index: 20°   Visibility: 10mi
Dew Point: 18°   Wind: 0mph
Humidity: 94%   Direction: NA
Pressure: 30.3"   Gusts: NA
Location:  43.56°N, 82.94°W
Report Text: KBAX 192355Z AUTO 00000KT 10SM CLR M07/M08 A3030 RMK AO2 T10681076 11011 21068
Loading
Personal Weather Stations






























Interactive Weather Map New forecast layout! Learn more

10-Day Weather Forecast

Advertisements
Track Severe Weather on mobile